Time;durP1;ratioP1;P1;durP2;ratioP2;P2;SDS_P1;SDS_P2;PMS_P1;PMS_P2;Temp;Humidity;BMP_temperature;BMP_pressure;BME280_temperature;BME280_humidity;BME280_pressure;Samples;Min_cycle;Max_cycle;Signal;HPM_P1;HPM_P2
2021/11/10 00:07:21;;;;;;;30.50;20.70;;;;;;;1.65;83.71;100977.64;427274;1312;141607;-63
2021/11/10 00:17:27;;;;;;;27.00;19.40;;;;;;;1.58;83.71;100996.48;417954;1314;143576;-63
2021/11/10 00:27:35;;;;;;;27.70;19.10;;;;;;;1.47;83.80;101000.84;429996;1311;271041;-68
2021/11/10 00:37:40;;;;;;;28.20;19.90;;;;;;;1.38;83.59;101004.67;429841;1313;144065;-63
2021/11/10 00:47:47;;;;;;;26.60;20.80;;;;;;;1.22;83.75;101004.55;422758;1312;143838;-63
2021/11/10 00:57:53;;;;;;;26.40;20.10;;;;;;;1.09;83.70;101004.58;428476;1313;142103;-62
2021/11/10 01:08:01;;;;;;;27.80;20.60;;;;;;;1.05;83.91;101008.20;418418;1313;196977;-54
2021/11/10 01:18:06;;;;;;;31.40;20.90;;;;;;;0.99;84.29;101013.39;433529;1313;141267;-54
2021/11/10 01:28:13;;;;;;;31.60;24.20;;;;;;;1.01;84.53;101004.08;421320;1312;144407;-53
2021/11/10 01:38:19;;;;;;;36.60;25.10;;;;;;;1.05;84.63;100986.48;432171;1312;141990;-54
2021/11/10 01:48:26;;;;;;;35.00;24.90;;;;;;;1.08;84.99;100973.36;433197;1310;142589;-53
2021/11/10 01:58:32;;;;;;;29.10;21.40;;;;;;;1.17;85.14;100957.13;432363;1313;144464;-53
2021/11/10 02:08:38;;;;;;;33.30;24.00;;;;;;;1.08;84.90;100954.91;433503;1312;144260;-55
2021/11/10 02:18:45;;;;;;;27.40;21.30;;;;;;;0.96;84.69;100960.45;434089;1311;142823;-54
2021/11/10 02:28:51;;;;;;;31.70;23.10;;;;;;;0.91;84.94;100954.77;433950;1311;141902;-55
2021/11/10 02:38:59;;;;;;;27.00;20.20;;;;;;;0.82;85.13;100947.89;431912;1312;182455;-54
2021/11/10 02:49:07;;;;;;;30.30;20.80;;;;;;;0.78;85.40;100938.95;430266;1312;142519;-52
2021/11/10 02:59:13;;;;;;;34.20;21.20;;;;;;;0.74;85.36;100923.78;424297;1312;141551;-52
2021/11/10 03:09:20;;;;;;;30.70;21.40;;;;;;;0.64;85.30;100915.17;432851;1311;142751;-54
2021/11/10 03:19:26;;;;;;;29.80;20.30;;;;;;;0.60;85.52;100914.15;432815;1313;141984;-55
2021/11/10 03:29:34;;;;;;;27.80;19.20;;;;;;;0.64;85.78;100905.87;433409;1312;143825;-55
2021/11/10 03:39:40;;;;;;;32.00;22.20;;;;;;;0.71;85.59;100887.58;434036;1313;142265;-56
2021/11/10 03:49:47;;;;;;;27.30;19.70;;;;;;;0.74;85.78;100871.72;434261;1312;142100;-52
2021/11/10 03:59:53;;;;;;;27.20;19.20;;;;;;;0.76;85.97;100862.41;432182;1311;162269;-54
2021/11/10 04:09:59;;;;;;;27.50;19.30;;;;;;;0.77;85.92;100854.30;434368;1313;143091;-55
2021/11/10 04:20:07;;;;;;;33.30;21.70;;;;;;;0.75;86.03;100850.35;434229;1309;143487;-54
2021/11/10 04:30:13;;;;;;;30.90;20.70;;;;;;;0.70;85.97;100844.16;433588;1313;142737;-55
2021/11/10 04:40:19;;;;;;;34.10;21.40;;;;;;;0.63;85.91;100839.52;433005;1314;142679;-55
2021/11/10 04:50:25;;;;;;;34.10;22.10;;;;;;;0.47;85.99;100826.46;433944;1309;143449;-55
2021/11/10 05:00:31;;;;;;;34.90;23.80;;;;;;;0.33;85.90;100810.13;433728;1314;141580;-55
2021/11/10 05:10:37;;;;;;;41.00;23.00;;;;;;;0.25;86.02;100809.97;434409;1313;141563;-54
2021/11/10 05:20:47;;;;;;;41.00;23.00;;;;;;;0.33;86.66;100811.52;433531;1312;142481;-53
2021/11/10 05:30:53;;;;;;;30.70;18.70;;;;;;;0.36;86.54;100818.23;433955;1312;144525;-54
2021/11/10 05:40:59;;;;;;;29.90;17.90;;;;;;;0.39;86.33;100821.48;434049;1310;143571;-57
2021/11/10 05:51:06;;;;;;;43.30;19.50;;;;;;;0.38;86.46;100829.08;433006;1314;142116;-54
2021/11/10 06:01:13;;;;;;;37.20;18.90;;;;;;;0.41;86.67;100830.27;433686;1313;141563;-54
2021/11/10 06:11:20;;;;;;;34.90;20.00;;;;;;;0.44;86.76;100826.30;433968;1311;141592;-52
2021/11/10 06:21:27;;;;;;;32.70;20.40;;;;;;;0.48;86.72;100818.54;432809;1310;141400;-56
2021/11/10 06:31:33;;;;;;;34.10;20.10;;;;;;;0.60;86.95;100825.57;433975;1313;142451;-54
2021/11/10 06:41:40;;;;;;;34.50;23.60;;;;;;;0.81;86.77;100832.92;433079;1313;143745;-57
2021/11/10 06:51:46;;;;;;;32.30;22.80;;;;;;;1.08;86.91;100837.45;430528;1312;141847;-53
2021/11/10 07:01:52;;;;;;;35.90;22.60;;;;;;;1.42;86.62;100836.92;426405;1312;146087;-55
2021/11/10 07:11:59;;;;;;;30.40;20.30;;;;;;;1.88;86.12;100827.44;433492;1312;143047;-55
2021/11/10 07:22:06;;;;;;;26.10;18.50;;;;;;;3.48;85.45;100824.83;434263;1312;143390;-56
2021/11/10 07:32:12;;;;;;;20.00;16.30;;;;;;;7.08;82.24;100818.75;434080;1314;142322;-65
2021/11/10 07:42:18;;;;;;;17.50;15.00;;;;;;;10.41;76.89;100809.41;433477;1313;142571;-66
2021/11/10 07:52:24;;;;;;;18.60;15.00;;;;;;;12.94;71.80;100799.35;429349;1313;142033;-66
2021/11/10 08:02:32;;;;;;;16.40;14.80;;;;;;;15.20;67.81;100778.88;431995;1314;146218;-65
2021/11/10 08:12:39;;;;;;;17.60;15.90;;;;;;;17.09;63.73;100767.70;433522;1314;142491;-63
2021/11/10 08:22:46;;;;;;;17.00;15.20;;;;;;;18.90;60.06;100767.91;432687;1315;303565;-63
2021/11/10 08:32:54;;;;;;;16.20;14.50;;;;;;;20.64;56.87;100766.73;432211;1313;141731;-64
2021/11/10 08:43:00;;;;;;;14.70;13.20;;;;;;;21.97;53.42;100764.46;425845;1313;141402;-72
2021/11/10 08:53:07;;;;;;;13.50;12.20;;;;;;;23.76;50.28;100753.51;432072;1314;142153;-73
2021/11/10 09:03:14;;;;;;;12.70;11.50;;;;;;;23.68;46.78;100742.91;423682;1314;141440;-68
2021/11/10 09:13:21;;;;;;;12.60;10.90;;;;;;;23.64;44.97;100734.31;430749;1313;142408;-70
2021/11/10 09:23:29;;;;;;;11.20;10.00;;;;;;;21.71;44.08;100730.14;420715;1313;142049;-61
2021/11/10 09:33:40;;;;;;;13.00;10.10;;;;;;;16.71;46.26;100723.80;433841;1313;142469;-64
2021/11/10 09:43:46;;;;;;;11.60;9.30;;;;;;;13.43;49.37;100721.36;434155;1312;141132;-66
2021/11/10 09:54:01;;;;;;;11.90;9.30;;;;;;;11.96;51.57;100713.59;433172;1313;145872;-58
2021/11/10 10:04:08;;;;;;;14.40;9.30;;;;;;;10.92;53.27;100712.04;433006;1313;141624;-57
2021/11/10 10:14:14;;;;;;;12.40;8.40;;;;;;;10.29;54.33;100699.30;430521;1314;141595;-58
2021/11/10 10:24:20;;;;;;;9.10;5.40;;;;;;;9.93;54.85;100687.94;427887;1313;141334;-60
2021/11/10 10:34:30;;;;;;;8.10;6.10;;;;;;;9.66;55.32;100678.91;434126;1313;141197;-59
2021/11/10 10:44:44;;;;;;;6.70;6.00;;;;;;;9.51;55.51;100665.58;422777;1313;141743;-60
2021/11/10 10:54:53;;;;;;;8.70;5.50;;;;;;;9.43;55.57;100651.06;433967;1313;141070;-61
2021/11/10 11:04:59;;;;;;;5.70;4.80;;;;;;;9.40;55.73;100640.71;429086;1313;141565;-61
2021/11/10 11:15:13;;;;;;;6.10;4.70;;;;;;;9.37;55.82;100632.76;416755;1313;141367;-65
2021/11/10 11:25:21;;;;;;;8.50;5.30;;;;;;;9.39;55.68;100611.91;432407;1314;142809;-63
2021/11/10 11:35:31;;;;;;;5.50;4.70;;;;;;;9.37;55.69;100597.81;433964;1313;141350;-62
2021/11/10 11:45:40;;;;;;;5.10;4.40;;;;;;;9.38;55.83;100580.49;432632;1313;141311;-69
2021/11/10 11:55:50;;;;;;;8.40;5.10;;;;;;;9.41;55.79;100567.42;423495;1314;141739;-63
2021/11/10 12:06:16;;;;;;;8.00;4.90;;;;;;;9.40;55.33;100559.59;421894;1313;141044;-67
2021/11/10 12:16:22;;;;;;;9.40;5.20;;;;;;;9.36;55.45;100559.61;433990;1313;141777;-67
2021/11/10 12:26:30;;;;;;;8.60;5.90;;;;;;;9.34;55.57;100555.48;427832;1313;141493;-66
2021/11/10 12:36:56;;;;;;;8.30;6.00;;;;;;;9.36;55.69;100542.84;418161;1313;141452;-68
2021/11/10 12:47:02;;;;;;;7.70;6.00;;;;;;;9.34;56.13;100534.33;430441;1313;141587;-58
2021/11/10 12:57:10;;;;;;;8.50;5.80;;;;;;;9.36;56.42;100539.31;432729;1313;141630;-60
2021/11/10 13:07:20;;;;;;;10.10;7.40;;;;;;;9.39;56.70;100530.80;431820;1316;142816;-59
2021/11/10 13:17:30;;;;;;;11.60;7.30;;;;;;;9.40;57.02;100515.40;433618;1309;140465;-62
2021/11/10 13:27:40;;;;;;;11.40;6.70;;;;;;;9.43;57.08;100508.13;422903;1312;141005;-64
2021/11/10 13:38:06;;;;;;;11.60;7.50;;;;;;;9.42;57.48;100498.72;426324;1313;140578;-63
2021/11/10 13:48:13;;;;;;;13.80;6.90;;;;;;;9.33;57.48;100496.84;433897;1310;141461;-68
2021/11/10 13:58:21;;;;;;;13.50;7.20;;;;;;;9.22;57.84;100494.50;433357;1311;141901;-68
2021/11/10 14:08:28;;;;;;;11.60;6.70;;;;;;;9.05;58.20;100490.33;432459;1311;142003;-62
2021/11/10 14:18:34;;;;;;;12.90;7.60;;;;;;;8.83;58.39;100488.83;427159;1311;141234;-60
2021/11/10 14:28:44;;;;;;;13.00;8.60;;;;;;;8.64;58.67;100481.77;433096;1311;144551;-65
2021/11/10 14:38:52;;;;;;;12.10;9.70;;;;;;;8.45;58.88;100474.98;433911;1308;141584;-58
2021/11/10 14:49:07;;;;;;;14.60;9.30;;;;;;;8.17;59.27;100472.29;425994;1309;141840;-57
2021/11/10 14:59:24;;;;;;;19.60;11.60;;;;;;;7.80;59.51;100467.27;433475;1309;141797;-58
2021/11/10 15:09:30;;;;;;;16.20;11.30;;;;;;;7.49;60.28;100464.94;434008;1309;141553;-58
2021/11/10 15:19:37;;;;;;;18.90;13.20;;;;;;;7.26;60.74;100466.63;434957;1309;143102;-62
2021/11/10 15:29:44;;;;;;;23.10;17.10;;;;;;;7.08;62.28;100471.27;419677;1308;10001679;-68
2021/11/10 15:39:50;;;;;;;31.20;19.20;;;;;;;6.84;63.97;100454.70;435277;1310;142379;-67
2021/11/10 15:49:56;;;;;;;28.70;19.30;;;;;;;6.60;65.26;100453.96;435136;1308;142591;-69
2021/11/10 16:00:04;;;;;;;30.10;22.40;;;;;;;6.38;66.21;100446.13;432991;1309;142077;-67
2021/11/10 16:10:11;;;;;;;33.90;24.10;;;;;;;6.18;66.99;100457.55;431967;1309;142637;-67
2021/11/10 16:20:17;;;;;;;31.80;20.40;;;;;;;5.99;67.80;100459.36;421379;1311;301315;-68
2021/11/10 16:30:36;;;;;;;36.60;25.20;;;;;;;5.77;68.34;100462.95;433837;1311;142560;-68
2021/11/10 16:40:42;;;;;;;31.60;23.00;;;;;;;5.60;68.61;100456.70;434150;1313;143737;-67
2021/11/10 16:50:50;;;;;;;34.70;23.90;;;;;;;5.46;69.21;100456.90;432246;1311;144623;-68
2021/11/10 17:00:56;;;;;;;31.20;22.60;;;;;;;5.39;69.36;100460.59;430183;1311;141685;-66
2021/11/10 17:11:03;;;;;;;34.80;24.20;;;;;;;5.24;69.82;100450.23;432963;1312;142377;-67
2021/11/10 17:21:10;;;;;;;31.70;23.10;;;;;;;5.04;70.19;100437.25;434105;1310;142512;-67
2021/11/10 17:31:17;;;;;;;33.30;23.50;;;;;;;4.81;70.75;100422.75;433604;1312;142249;-66
2021/11/10 17:41:22;;;;;;;37.70;27.50;;;;;;;4.60;71.23;100420.00;431087;1309;142448;-66
2021/11/10 17:51:29;;;;;;;32.30;23.20;;;;;;;4.42;71.84;100418.40;406342;1312;20002059;-65
2021/11/10 18:01:35;;;;;;;35.50;26.80;;;;;;;4.28;72.24;100411.09;431280;1312;142271;-63
2021/11/10 18:11:41;;;;;;;37.20;24.60;;;;;;;4.21;72.76;100402.27;432134;1310;141888;-63
2021/11/10 18:21:47;;;;;;;37.80;27.50;;;;;;;4.13;73.18;100400.37;434608;1307;142112;-64
2021/11/10 18:31:53;;;;;;;48.10;31.80;;;;;;;4.08;73.41;100388.02;434706;1311;141826;-64
2021/11/10 18:41:59;;;;;;;41.90;28.70;;;;;;;4.06;73.80;100378.54;433953;1310;141710;-64
2021/11/10 18:52:06;;;;;;;48.70;30.00;;;;;;;4.05;73.93;100373.54;433855;1311;143323;-65
2021/11/10 19:02:14;;;;;;;41.70;28.30;;;;;;;4.00;74.14;100362.05;425500;1311;142309;-61
2021/11/10 19:22:46;;;;;;;42.30;28.50;;;;;;;3.75;74.67;100350.86;433773;1312;141635;-62
2021/11/10 19:32:52;;;;;;;68.30;35.40;;;;;;;3.68;74.93;100350.34;433664;1312;143781;-62
2021/11/10 19:42:58;;;;;;;38.10;26.10;;;;;;;3.64;75.06;100352.51;428436;1313;142192;-61
2021/11/10 19:53:06;;;;;;;42.50;28.40;;;;;;;3.56;75.09;100357.70;415199;1311;10001848;-62
2021/11/10 20:03:12;;;;;;;43.60;29.00;;;;;;;3.37;74.93;100349.83;429727;1312;142002;-62
2021/11/10 20:13:18;;;;;;;53.90;29.10;;;;;;;3.22;75.41;100347.88;424022;1311;141821;-61
2021/11/10 20:23:26;;;;;;;36.00;25.20;;;;;;;3.10;75.45;100349.68;420522;1311;141044;-61
2021/11/10 20:33:33;;;;;;;44.70;26.50;;;;;;;2.99;75.70;100345.94;426269;1311;142533;-61
2021/11/10 20:43:40;;;;;;;41.00;24.80;;;;;;;2.84;75.82;100357.64;430687;1312;141732;-62
2021/11/10 20:53:47;;;;;;;40.80;28.20;;;;;;;2.68;75.69;100356.92;432940;1310;141756;-63
2021/11/10 21:03:54;;;;;;;44.90;26.80;;;;;;;2.56;75.93;100356.96;432266;1309;142187;-67
2021/11/10 21:14:00;;;;;;;42.90;26.10;;;;;;;2.44;76.11;100350.46;425020;1309;142616;-66
2021/11/10 21:24:08;;;;;;;57.20;32.60;;;;;;;2.31;76.17;100357.23;432835;1312;141962;-66
2021/11/10 21:34:13;;;;;;;;;;;;;;;2.25;76.57;100366.16;433976;1309;142272;-64
2021/11/10 21:44:19;;;;;;;40.60;26.80;;;;;;;2.19;76.59;100356.58;435224;1309;127916;-64
2021/11/10 21:54:28;;;;;;;43.80;27.70;;;;;;;2.12;76.65;100358.42;419582;1312;142629;-64
2021/11/10 22:04:34;;;;;;;44.00;28.50;;;;;;;2.03;76.64;100353.75;434701;1312;142639;-63
2021/11/10 22:14:41;;;;;;;43.40;29.30;;;;;;;1.92;76.75;100356.67;429340;1313;142305;-64
2021/11/10 22:24:46;;;;;;;43.60;29.00;;;;;;;1.82;76.68;100366.84;434344;1313;142350;-60
2021/11/10 22:34:53;;;;;;;40.00;26.70;;;;;;;1.82;76.64;100381.01;421201;1312;141467;-64
2021/11/10 22:44:59;;;;;;;39.10;27.00;;;;;;;1.84;76.81;100384.07;432161;1312;142056;-62
2021/11/10 22:55:07;;;;;;;38.30;25.30;;;;;;;1.96;76.86;100378.73;433240;1312;143233;-62
2021/11/10 23:05:13;;;;;;;33.90;24.10;;;;;;;2.07;77.05;100378.89;434538;1313;142546;-60
2021/11/10 23:15:19;;;;;;;39.30;24.90;;;;;;;2.08;76.74;100372.13;427499;1312;141720;-62
2021/11/10 23:25:26;;;;;;;51.80;32.40;;;;;;;2.00;76.76;100360.70;421013;1312;142060;-61
2021/11/10 23:35:36;;;;;;;47.60;33.30;;;;;;;1.91;77.08;100354.96;419487;1312;145070;-59
2021/11/10 23:45:44;;;;;;;45.00;29.80;;;;;;;1.85;77.23;100361.45;418663;1312;211772;-61
2021/11/10 23:55:50;;;;;;;50.00;28.60;;;;;;;1.76;77.25;100363.83;419436;1312;141848;-62
